sensor_id;sensor_type;location;lat;lon;timestamp;temperature;humidity
21834;DHT22;11079;51.092;3.458;2023-07-20T00:02:23;16.30;99.90
21834;DHT22;11079;51.092;3.458;2023-07-20T00:04:49;16.30;99.90
21834;DHT22;11079;51.092;3.458;2023-07-20T00:07:15;16.30;99.90
21834;DHT22;11079;51.092;3.458;2023-07-20T00:09:40;16.40;99.90
21834;DHT22;11079;51.092;3.458;2023-07-20T00:12:06;16.40;99.90
21834;DHT22;11079;51.092;3.458;2023-07-20T00:14:32;16.40;99.90
21834;DHT22;11079;51.092;3.458;2023-07-20T00:16:59;16.30;99.90
21834;DHT22;11079;51.092;3.458;2023-07-20T00:19:28;16.30;99.90
21834;DHT22;11079;51.092;3.458;2023-07-20T00:21:54;16.30;99.90
21834;DHT22;11079;51.092;3.458;2023-07-20T00:24:20;16.40;99.90
21834;DHT22;11079;51.092;3.458;2023-07-20T00:26:46;16.40;99.90
21834;DHT22;11079;51.092;3.458;2023-07-20T00:29:11;16.40;99.90
21834;DHT22;11079;51.092;3.458;2023-07-20T00:31:37;16.60;99.90
21834;DHT22;11079;51.092;3.458;2023-07-20T00:34:04;16.60;99.90
21834;DHT22;11079;51.092;3.458;2023-07-20T00:36:29;16.60;99.90
21834;DHT22;11079;51.092;3.458;2023-07-20T00:38:55;16.50;99.90
21834;DHT22;11079;51.092;3.458;2023-07-20T00:41:21;16.60;99.90
21834;DHT22;11079;51.092;3.458;2023-07-20T00:43:46;16.60;99.90
21834;DHT22;11079;51.092;3.458;2023-07-20T00:46:12;16.70;99.90
21834;DHT22;11079;51.092;3.458;2023-07-20T00:48:39;16.90;99.90
21834;DHT22;11079;51.092;3.458;2023-07-20T00:51:05;17.00;99.90
21834;DHT22;11079;51.092;3.458;2023-07-20T00:53:31;16.90;99.90
21834;DHT22;11079;51.092;3.458;2023-07-20T00:55:57;16.40;99.90
21834;DHT22;11079;51.092;3.458;2023-07-20T00:58:23;16.30;99.90
21834;DHT22;11079;51.092;3.458;2023-07-20T01:00:49;16.10;99.90
21834;DHT22;11079;51.092;3.458;2023-07-20T01:03:15;16.20;99.90
21834;DHT22;11079;51.092;3.458;2023-07-20T01:05:54;16.40;99.90
21834;DHT22;11079;51.092;3.458;2023-07-20T01:09:22;16.40;99.90
21834;DHT22;11079;51.092;3.458;2023-07-20T01:14:17;16.80;99.90
21834;DHT22;11079;51.092;3.458;2023-07-20T01:16:42;16.90;99.90
21834;DHT22;11079;51.092;3.458;2023-07-20T01:19:08;16.80;99.90
21834;DHT22;11079;51.092;3.458;2023-07-20T01:21:48;16.70;99.90
21834;DHT22;11079;51.092;3.458;2023-07-20T01:30:34;16.60;99.90
21834;DHT22;11079;51.092;3.458;2023-07-20T01:33:00;16.40;99.90
21834;DHT22;11079;51.092;3.458;2023-07-20T01:35:29;16.30;99.90
21834;DHT22;11079;51.092;3.458;2023-07-20T01:37:55;16.20;99.90
21834;DHT22;11079;51.092;3.458;2023-07-20T01:40:23;16.30;99.90
21834;DHT22;11079;51.092;3.458;2023-07-20T01:42:51;16.20;99.90
21834;DHT22;11079;51.092;3.458;2023-07-20T01:45:18;16.20;99.90
21834;DHT22;11079;51.092;3.458;2023-07-20T01:47:43;16.20;99.90
21834;DHT22;11079;51.092;3.458;2023-07-20T01:50:09;16.20;99.90
21834;DHT22;11079;51.092;3.458;2023-07-20T01:52:35;16.00;99.90
21834;DHT22;11079;51.092;3.458;2023-07-20T01:55:01;15.80;99.90
21834;DHT22;11079;51.092;3.458;2023-07-20T01:57:27;15.80;99.90
21834;DHT22;11079;51.092;3.458;2023-07-20T01:59:53;15.90;99.90
21834;DHT22;11079;51.092;3.458;2023-07-20T02:02:19;16.00;99.90
21834;DHT22;11079;51.092;3.458;2023-07-20T02:04:46;15.90;99.90
21834;DHT22;11079;51.092;3.458;2023-07-20T02:07:11;16.00;99.90
21834;DHT22;11079;51.092;3.458;2023-07-20T02:09:37;16.10;99.90
21834;DHT22;11079;51.092;3.458;2023-07-20T02:12:03;16.20;99.90
21834;DHT22;11079;51.092;3.458;2023-07-20T02:14:28;16.20;99.90
21834;DHT22;11079;51.092;3.458;2023-07-20T02:16:54;16.20;99.90
21834;DHT22;11079;51.092;3.458;2023-07-20T02:19:25;16.30;99.90
21834;DHT22;11079;51.092;3.458;2023-07-20T02:21:50;16.50;99.90
21834;DHT22;11079;51.092;3.458;2023-07-20T02:24:16;16.60;99.90
21834;DHT22;11079;51.092;3.458;2023-07-20T02:26:42;16.70;99.90
21834;DHT22;11079;51.092;3.458;2023-07-20T02:29:09;16.80;99.90
21834;DHT22;11079;51.092;3.458;2023-07-20T02:31:37;16.80;99.90
21834;DHT22;11079;51.092;3.458;2023-07-20T02:34:03;16.80;99.90
21834;DHT22;11079;51.092;3.458;2023-07-20T02:36:28;17.00;99.90
21834;DHT22;11079;51.092;3.458;2023-07-20T02:38:54;16.90;99.90
21834;DHT22;11079;51.092;3.458;2023-07-20T02:41:20;17.00;99.90
21834;DHT22;11079;51.092;3.458;2023-07-20T02:43:46;17.10;99.90
21834;DHT22;11079;51.092;3.458;2023-07-20T02:46:12;17.30;99.90
21834;DHT22;11079;51.092;3.458;2023-07-20T02:48:37;17.20;99.90
21834;DHT22;11079;51.092;3.458;2023-07-20T02:51:03;17.10;99.90
21834;DHT22;11079;51.092;3.458;2023-07-20T02:53:29;17.00;99.90
21834;DHT22;11079;51.092;3.458;2023-07-20T02:55:54;17.00;99.90
21834;DHT22;11079;51.092;3.458;2023-07-20T02:58:21;17.10;99.90
21834;DHT22;11079;51.092;3.458;2023-07-20T03:00:47;17.00;99.90
21834;DHT22;11079;51.092;3.458;2023-07-20T03:03:13;17.00;99.90
21834;DHT22;11079;51.092;3.458;2023-07-20T03:05:41;17.00;99.90
21834;DHT22;11079;51.092;3.458;2023-07-20T03:08:06;16.90;99.90
21834;DHT22;11079;51.092;3.458;2023-07-20T03:10:38;16.90;99.90
21834;DHT22;11079;51.092;3.458;2023-07-20T03:13:04;16.90;99.90
21834;DHT22;11079;51.092;3.458;2023-07-20T03:15:30;16.80;99.90
21834;DHT22;11079;51.092;3.458;2023-07-20T03:17:57;16.90;99.90
21834;DHT22;11079;51.092;3.458;2023-07-20T03:20:24;17.00;99.90
21834;DHT22;11079;51.092;3.458;2023-07-20T03:22:50;17.10;99.90
21834;DHT22;11079;51.092;3.458;2023-07-20T03:25:15;17.20;99.90
21834;DHT22;11079;51.092;3.458;2023-07-20T03:27:41;17.30;99.90
21834;DHT22;11079;51.092;3.458;2023-07-20T03:30:07;17.20;99.90
21834;DHT22;11079;51.092;3.458;2023-07-20T03:32:35;17.10;99.90
21834;DHT22;11079;51.092;3.458;2023-07-20T03:35:01;17.10;99.90
21834;DHT22;11079;51.092;3.458;2023-07-20T03:37:26;17.20;99.90
21834;DHT22;11079;51.092;3.458;2023-07-20T03:39:52;17.10;99.90
21834;DHT22;11079;51.092;3.458;2023-07-20T03:42:18;17.00;99.90
21834;DHT22;11079;51.092;3.458;2023-07-20T03:44:43;17.10;99.90
21834;DHT22;11079;51.092;3.458;2023-07-20T03:47:09;17.10;99.90
21834;DHT22;11079;51.092;3.458;2023-07-20T03:49:34;17.10;99.90
21834;DHT22;11079;51.092;3.458;2023-07-20T03:52:01;17.00;99.90
21834;DHT22;11079;51.092;3.458;2023-07-20T03:54:28;17.10;99.90
21834;DHT22;11079;51.092;3.458;2023-07-20T03:56:54;17.10;99.90
21834;DHT22;11079;51.092;3.458;2023-07-20T03:59:21;17.00;99.90
21834;DHT22;11079;51.092;3.458;2023-07-20T04:01:47;17.00;99.90
21834;DHT22;11079;51.092;3.458;2023-07-20T04:04:15;17.10;99.90
21834;DHT22;11079;51.092;3.458;2023-07-20T04:06:41;17.00;99.90
21834;DHT22;11079;51.092;3.458;2023-07-20T04:09:10;16.90;99.90
21834;DHT22;11079;51.092;3.458;2023-07-20T04:11:36;17.00;99.90
21834;DHT22;11079;51.092;3.458;2023-07-20T04:14:03;17.10;99.90
21834;DHT22;11079;51.092;3.458;2023-07-20T04:16:38;17.20;99.90
21834;DHT22;11079;51.092;3.458;2023-07-20T04:19:04;17.10;99.90
21834;DHT22;11079;51.092;3.458;2023-07-20T04:21:45;17.10;99.90
21834;DHT22;11079;51.092;3.458;2023-07-20T04:24:12;17.10;99.90
21834;DHT22;11079;51.092;3.458;2023-07-20T04:26:38;17.30;99.90
21834;DHT22;11079;51.092;3.458;2023-07-20T04:29:04;17.30;99.90
21834;DHT22;11079;51.092;3.458;2023-07-20T04:31:30;17.40;99.90
21834;DHT22;11079;51.092;3.458;2023-07-20T04:33:58;17.40;99.90
21834;DHT22;11079;51.092;3.458;2023-07-20T04:36:25;17.30;99.90
21834;DHT22;11079;51.092;3.458;2023-07-20T04:38:51;17.40;99.90
21834;DHT22;11079;51.092;3.458;2023-07-20T04:41:17;17.40;99.90
21834;DHT22;11079;51.092;3.458;2023-07-20T04:43:44;17.50;99.90
21834;DHT22;11079;51.092;3.458;2023-07-20T04:46:11;17.60;99.90
21834;DHT22;11079;51.092;3.458;2023-07-20T04:48:37;17.60;99.90
21834;DHT22;11079;51.092;3.458;2023-07-20T04:51:03;17.70;99.90
21834;DHT22;11079;51.092;3.458;2023-07-20T04:53:28;17.70;99.90
21834;DHT22;11079;51.092;3.458;2023-07-20T04:55:54;17.70;99.90
21834;DHT22;11079;51.092;3.458;2023-07-20T04:58:21;17.80;99.90
21834;DHT22;11079;51.092;3.458;2023-07-20T05:00:48;17.90;99.90
21834;DHT22;11079;51.092;3.458;2023-07-20T05:03:14;17.90;99.90
21834;DHT22;11079;51.092;3.458;2023-07-20T05:05:40;17.90;99.90
21834;DHT22;11079;51.092;3.458;2023-07-20T05:08:05;17.90;99.90
21834;DHT22;11079;51.092;3.458;2023-07-20T05:10:31;17.90;99.90
21834;DHT22;11079;51.092;3.458;2023-07-20T05:12:58;18.00;99.90
21834;DHT22;11079;51.092;3.458;2023-07-20T05:15:24;18.10;99.90
21834;DHT22;11079;51.092;3.458;2023-07-20T05:17:49;18.20;99.90
21834;DHT22;11079;51.092;3.458;2023-07-20T05:20:15;18.40;99.90
21834;DHT22;11079;51.092;3.458;2023-07-20T05:22:41;18.50;99.90
21834;DHT22;11079;51.092;3.458;2023-07-20T05:25:08;18.70;99.90
21834;DHT22;11079;51.092;3.458;2023-07-20T05:27:38;18.80;99.90
21834;DHT22;11079;51.092;3.458;2023-07-20T05:30:04;18.70;99.90
21834;DHT22;11079;51.092;3.458;2023-07-20T05:32:30;18.80;99.90
21834;DHT22;11079;51.092;3.458;2023-07-20T05:34:56;18.80;99.90
21834;DHT22;11079;51.092;3.458;2023-07-20T05:37:24;19.00;99.90
21834;DHT22;11079;51.092;3.458;2023-07-20T05:39:50;19.20;99.90
21834;DHT22;11079;51.092;3.458;2023-07-20T05:42:18;19.20;99.90
21834;DHT22;11079;51.092;3.458;2023-07-20T05:47:25;19.50;99.90
21834;DHT22;11079;51.092;3.458;2023-07-20T05:49:59;19.70;99.90
21834;DHT22;11079;51.092;3.458;2023-07-20T05:52:44;19.80;99.90
21834;DHT22;11079;51.092;3.458;2023-07-20T05:55:14;20.00;99.90
21834;DHT22;11079;51.092;3.458;2023-07-20T05:57:40;20.20;99.90
21834;DHT22;11079;51.092;3.458;2023-07-20T06:00:34;20.40;99.90
21834;DHT22;11079;51.092;3.458;2023-07-20T06:03:25;20.80;99.90
21834;DHT22;11079;51.092;3.458;2023-07-20T06:06:16;21.50;99.90
21834;DHT22;11079;51.092;3.458;2023-07-20T06:09:17;22.20;99.90
21834;DHT22;11079;51.092;3.458;2023-07-20T06:12:38;24.10;99.90
21834;DHT22;11079;51.092;3.458;2023-07-20T06:15:35;26.30;99.90
21834;DHT22;11079;51.092;3.458;2023-07-20T06:18:31;26.00;99.90
21834;DHT22;11079;51.092;3.458;2023-07-20T06:20:57;25.60;99.90
21834;DHT22;11079;51.092;3.458;2023-07-20T06:23:22;25.20;99.90
21834;DHT22;11079;51.092;3.458;2023-07-20T06:25:48;25.60;99.90
21834;DHT22;11079;51.092;3.458;2023-07-20T06:28:14;25.80;99.90
21834;DHT22;11079;51.092;3.458;2023-07-20T06:30:40;26.90;99.90
21834;DHT22;11079;51.092;3.458;2023-07-20T06:33:05;27.80;99.90
21834;DHT22;11079;51.092;3.458;2023-07-20T06:35:32;27.40;99.90
21834;DHT22;11079;51.092;3.458;2023-07-20T06:37:57;27.00;99.90
21834;DHT22;11079;51.092;3.458;2023-07-20T06:40:26;26.70;99.90
21834;DHT22;11079;51.092;3.458;2023-07-20T06:42:51;27.00;99.90
21834;DHT22;11079;51.092;3.458;2023-07-20T06:45:17;27.30;99.90
21834;DHT22;11079;51.092;3.458;2023-07-20T06:47:44;27.20;99.90
21834;DHT22;11079;51.092;3.458;2023-07-20T06:50:10;27.00;99.90
21834;DHT22;11079;51.092;3.458;2023-07-20T06:52:36;26.30;99.90
21834;DHT22;11079;51.092;3.458;2023-07-20T06:55:02;25.90;99.90
21834;DHT22;11079;51.092;3.458;2023-07-20T06:57:28;25.80;99.90
21834;DHT22;11079;51.092;3.458;2023-07-20T07:00:00;25.40;99.90
21834;DHT22;11079;51.092;3.458;2023-07-20T07:02:26;25.10;99.90
21834;DHT22;11079;51.092;3.458;2023-07-20T07:04:53;24.80;99.90
21834;DHT22;11079;51.092;3.458;2023-07-20T07:07:20;24.70;99.90
21834;DHT22;11079;51.092;3.458;2023-07-20T07:09:46;25.40;99.90
21834;DHT22;11079;51.092;3.458;2023-07-20T07:12:11;25.70;99.90
21834;DHT22;11079;51.092;3.458;2023-07-20T07:14:37;25.40;99.90
21834;DHT22;11079;51.092;3.458;2023-07-20T07:17:03;27.00;99.90
21834;DHT22;11079;51.092;3.458;2023-07-20T07:19:28;29.10;99.90
21834;DHT22;11079;51.092;3.458;2023-07-20T07:21:54;30.70;99.90
21834;DHT22;11079;51.092;3.458;2023-07-20T07:24:19;30.70;99.90
21834;DHT22;11079;51.092;3.458;2023-07-20T07:26:45;29.10;99.90
21834;DHT22;11079;51.092;3.458;2023-07-20T07:29:11;28.00;99.90
21834;DHT22;11079;51.092;3.458;2023-07-20T07:31:36;27.70;99.90
21834;DHT22;11079;51.092;3.458;2023-07-20T07:34:04;27.10;99.90
21834;DHT22;11079;51.092;3.458;2023-07-20T07:36:46;26.20;99.90
21834;DHT22;11079;51.092;3.458;2023-07-20T07:39:13;26.60;99.90
21834;DHT22;11079;51.092;3.458;2023-07-20T07:41:39;27.20;99.90
21834;DHT22;11079;51.092;3.458;2023-07-20T07:44:04;29.10;99.90
21834;DHT22;11079;51.092;3.458;2023-07-20T07:46:30;30.10;99.90
21834;DHT22;11079;51.092;3.458;2023-07-20T07:48:56;29.70;99.90
21834;DHT22;11079;51.092;3.458;2023-07-20T07:51:22;29.20;99.90
21834;DHT22;11079;51.092;3.458;2023-07-20T07:53:47;28.70;99.90
21834;DHT22;11079;51.092;3.458;2023-07-20T07:56:14;28.50;99.90
21834;DHT22;11079;51.092;3.458;2023-07-20T07:58:40;28.30;99.90
21834;DHT22;11079;51.092;3.458;2023-07-20T08:01:06;30.00;99.90
21834;DHT22;11079;51.092;3.458;2023-07-20T08:03:31;31.70;99.90
21834;DHT22;11079;51.092;3.458;2023-07-20T08:05:57;32.60;99.90
21834;DHT22;11079;51.092;3.458;2023-07-20T08:08:24;33.50;99.20
21834;DHT22;11079;51.092;3.458;2023-07-20T08:10:52;31.60;99.80
21834;DHT22;11079;51.092;3.458;2023-07-20T08:13:18;30.60;99.90
21834;DHT22;11079;51.092;3.458;2023-07-20T08:15:49;31.10;99.90
21834;DHT22;11079;51.092;3.458;2023-07-20T08:18:16;31.50;99.60
21834;DHT22;11079;51.092;3.458;2023-07-20T08:20:49;32.70;97.70
21834;DHT22;11079;51.092;3.458;2023-07-20T08:23:15;32.10;97.70
21834;DHT22;11079;51.092;3.458;2023-07-20T08:25:44;31.10;99.70
21834;DHT22;11079;51.092;3.458;2023-07-20T08:28:29;30.00;99.90
21834;DHT22;11079;51.092;3.458;2023-07-20T08:30:56;29.70;99.90
21834;DHT22;11079;51.092;3.458;2023-07-20T08:33:23;29.70;99.90
21834;DHT22;11079;51.092;3.458;2023-07-20T08:35:49;30.20;99.90
21834;DHT22;11079;51.092;3.458;2023-07-20T08:38:15;30.10;99.90
21834;DHT22;11079;51.092;3.458;2023-07-20T08:40:42;30.00;99.90
21834;DHT22;11079;51.092;3.458;2023-07-20T08:43:33;29.40;99.90
21834;DHT22;11079;51.092;3.458;2023-07-20T08:46:42;29.20;99.90
21834;DHT22;11079;51.092;3.458;2023-07-20T08:49:08;29.70;99.90
21834;DHT22;11079;51.092;3.458;2023-07-20T08:51:35;29.60;99.90
21834;DHT22;11079;51.092;3.458;2023-07-20T08:54:02;29.60;99.90
21834;DHT22;11079;51.092;3.458;2023-07-20T08:56:30;29.20;99.90
21834;DHT22;11079;51.092;3.458;2023-07-20T08:58:57;28.90;99.90
21834;DHT22;11079;51.092;3.458;2023-07-20T09:01:23;28.30;99.90
21834;DHT22;11079;51.092;3.458;2023-07-20T09:03:50;28.20;99.90
21834;DHT22;11079;51.092;3.458;2023-07-20T09:06:17;27.70;99.90
21834;DHT22;11079;51.092;3.458;2023-07-20T09:08:42;27.60;99.90
21834;DHT22;11079;51.092;3.458;2023-07-20T09:11:14;27.40;99.90
21834;DHT22;11079;51.092;3.458;2023-07-20T09:13:40;27.50;99.90
21834;DHT22;11079;51.092;3.458;2023-07-20T09:16:06;27.50;99.90
21834;DHT22;11079;51.092;3.458;2023-07-20T09:18:32;27.40;99.90
21834;DHT22;11079;51.092;3.458;2023-07-20T09:21:03;26.90;99.90
21834;DHT22;11079;51.092;3.458;2023-07-20T09:23:39;27.30;99.90
21834;DHT22;11079;51.092;3.458;2023-07-20T09:26:14;27.60;99.90
21834;DHT22;11079;51.092;3.458;2023-07-20T09:28:51;28.70;99.90
21834;DHT22;11079;51.092;3.458;2023-07-20T09:31:19;29.30;99.90
21834;DHT22;11079;51.092;3.458;2023-07-20T09:33:45;29.60;99.90
21834;DHT22;11079;51.092;3.458;2023-07-20T09:36:11;29.50;99.90
21834;DHT22;11079;51.092;3.458;2023-07-20T09:38:37;29.40;99.90
21834;DHT22;11079;51.092;3.458;2023-07-20T09:41:05;29.30;99.90
21834;DHT22;11079;51.092;3.458;2023-07-20T09:43:33;29.30;99.90
21834;DHT22;11079;51.092;3.458;2023-07-20T09:46:00;28.80;99.90
21834;DHT22;11079;51.092;3.458;2023-07-20T09:48:26;28.40;99.90
21834;DHT22;11079;51.092;3.458;2023-07-20T09:50:52;28.30;99.90
21834;DHT22;11079;51.092;3.458;2023-07-20T09:53:40;27.60;99.90
21834;DHT22;11079;51.092;3.458;2023-07-20T09:56:07;27.40;99.90
21834;DHT22;11079;51.092;3.458;2023-07-20T09:58:56;27.60;99.90
21834;DHT22;11079;51.092;3.458;2023-07-20T10:01:21;28.90;99.90
21834;DHT22;11079;51.092;3.458;2023-07-20T10:03:51;30.60;99.90
21834;DHT22;11079;51.092;3.458;2023-07-20T10:06:23;31.00;99.90
21834;DHT22;11079;51.092;3.458;2023-07-20T10:09:04;30.60;99.90
21834;DHT22;11079;51.092;3.458;2023-07-20T10:11:43;30.20;99.90
21834;DHT22;11079;51.092;3.458;2023-07-20T10:18:16;29.80;99.90
21834;DHT22;11079;51.092;3.458;2023-07-20T10:21:08;29.30;99.90
21834;DHT22;11079;51.092;3.458;2023-07-20T10:23:35;28.90;99.90
21834;DHT22;11079;51.092;3.458;2023-07-20T10:26:01;28.80;99.90
21834;DHT22;11079;51.092;3.458;2023-07-20T10:28:28;29.40;99.90
21834;DHT22;11079;51.092;3.458;2023-07-20T10:37:47;32.10;96.50
21834;DHT22;11079;51.092;3.458;2023-07-20T10:40:39;31.30;96.60
21834;DHT22;11079;51.092;3.458;2023-07-20T10:43:19;30.00;97.90
21834;DHT22;11079;51.092;3.458;2023-07-20T10:45:52;29.00;99.60
21834;DHT22;11079;51.092;3.458;2023-07-20T10:48:22;28.40;99.90
21834;DHT22;11079;51.092;3.458;2023-07-20T10:51:20;28.10;99.90
21834;DHT22;11079;51.092;3.458;2023-07-20T10:53:48;27.80;99.90
21834;DHT22;11079;51.092;3.458;2023-07-20T10:56:20;27.50;99.90
21834;DHT22;11079;51.092;3.458;2023-07-20T10:58:49;27.10;99.90
21834;DHT22;11079;51.092;3.458;2023-07-20T11:01:36;26.40;99.90
21834;DHT22;11079;51.092;3.458;2023-07-20T11:05:00;26.10;99.90
21834;DHT22;11079;51.092;3.458;2023-07-20T11:08:37;25.70;99.90
21834;DHT22;11079;51.092;3.458;2023-07-20T11:12:15;25.70;99.90
21834;DHT22;11079;51.092;3.458;2023-07-20T11:18:38;25.70;99.90
21834;DHT22;11079;51.092;3.458;2023-07-20T11:24:38;25.30;99.90
21834;DHT22;11079;51.092;3.458;2023-07-20T11:27:08;25.20;99.90
21834;DHT22;11079;51.092;3.458;2023-07-20T11:33:08;25.30;99.90
21834;DHT22;11079;51.092;3.458;2023-07-20T11:35:45;25.40;99.90
21834;DHT22;11079;51.092;3.458;2023-07-20T11:38:13;26.10;99.90
21834;DHT22;11079;51.092;3.458;2023-07-20T11:40:44;28.80;99.90
21834;DHT22;11079;51.092;3.458;2023-07-20T11:43:41;32.30;96.40
21834;DHT22;11079;51.092;3.458;2023-07-20T11:46:31;33.50;91.90
21834;DHT22;11079;51.092;3.458;2023-07-20T11:49:20;34.20;87.00
21834;DHT22;11079;51.092;3.458;2023-07-20T11:52:26;33.60;85.20
21834;DHT22;11079;51.092;3.458;2023-07-20T11:55:19;34.40;86.20
21834;DHT22;11079;51.092;3.458;2023-07-20T11:58:10;34.80;81.10
21834;DHT22;11079;51.092;3.458;2023-07-20T12:00:38;35.20;77.80
21834;DHT22;11079;51.092;3.458;2023-07-20T12:03:06;37.30;78.10
21834;DHT22;11079;51.092;3.458;2023-07-20T12:05:37;37.90;71.50
21834;DHT22;11079;51.092;3.458;2023-07-20T12:08:04;36.30;73.00
21834;DHT22;11079;51.092;3.458;2023-07-20T12:10:29;34.60;76.30
21834;DHT22;11079;51.092;3.458;2023-07-20T12:13:02;32.80;79.50
21834;DHT22;11079;51.092;3.458;2023-07-20T12:15:29;31.30;82.00
21834;DHT22;11079;51.092;3.458;2023-07-20T12:18:00;30.00;86.00
21834;DHT22;11079;51.092;3.458;2023-07-20T12:20:31;28.90;88.90
21834;DHT22;11079;51.092;3.458;2023-07-20T12:23:03;28.00;91.00
21834;DHT22;11079;51.092;3.458;2023-07-20T12:25:48;27.50;93.00
21834;DHT22;11079;51.092;3.458;2023-07-20T12:28:19;27.60;93.80
21834;DHT22;11079;51.092;3.458;2023-07-20T12:30:46;27.30;94.70
21834;DHT22;11079;51.092;3.458;2023-07-20T12:33:12;27.30;95.70
21834;DHT22;11079;51.092;3.458;2023-07-20T12:35:41;26.80;97.00
21834;DHT22;11079;51.092;3.458;2023-07-20T12:38:08;26.60;98.40
21834;DHT22;11079;51.092;3.458;2023-07-20T12:40:34;26.20;99.10
21834;DHT22;11079;51.092;3.458;2023-07-20T12:43:01;25.70;99.90
21834;DHT22;11079;51.092;3.458;2023-07-20T12:45:27;25.50;99.90
21834;DHT22;11079;51.092;3.458;2023-07-20T12:47:52;25.60;99.90
21834;DHT22;11079;51.092;3.458;2023-07-20T12:50:18;25.50;99.90
21834;DHT22;11079;51.092;3.458;2023-07-20T12:52:44;25.40;99.90
21834;DHT22;11079;51.092;3.458;2023-07-20T12:55:10;25.20;99.90
21834;DHT22;11079;51.092;3.458;2023-07-20T12:57:36;25.00;99.90
21834;DHT22;11079;51.092;3.458;2023-07-20T13:00:04;25.00;99.90
21834;DHT22;11079;51.092;3.458;2023-07-20T13:02:32;24.60;99.90
21834;DHT22;11079;51.092;3.458;2023-07-20T13:04:57;24.60;99.90
21834;DHT22;11079;51.092;3.458;2023-07-20T13:07:31;24.70;99.90
21834;DHT22;11079;51.092;3.458;2023-07-20T13:09:58;24.80;99.90
21834;DHT22;11079;51.092;3.458;2023-07-20T13:12:29;24.70;99.90
21834;DHT22;11079;51.092;3.458;2023-07-20T13:14:55;24.80;99.90
21834;DHT22;11079;51.092;3.458;2023-07-20T13:17:24;24.70;99.90
21834;DHT22;11079;51.092;3.458;2023-07-20T13:19:50;24.50;99.90
21834;DHT22;11079;51.092;3.458;2023-07-20T13:25:07;24.20;99.90
21834;DHT22;11079;51.092;3.458;2023-07-20T13:27:33;24.00;99.90
21834;DHT22;11079;51.092;3.458;2023-07-20T13:30:00;23.90;99.90
21834;DHT22;11079;51.092;3.458;2023-07-20T13:32:32;23.60;99.90
21834;DHT22;11079;51.092;3.458;2023-07-20T13:35:00;23.40;99.90
21834;DHT22;11079;51.092;3.458;2023-07-20T13:37:32;23.10;99.90
21834;DHT22;11079;51.092;3.458;2023-07-20T13:39:58;23.00;99.90
21834;DHT22;11079;51.092;3.458;2023-07-20T13:42:25;22.90;99.90
21834;DHT22;11079;51.092;3.458;2023-07-20T13:44:51;22.90;99.90
21834;DHT22;11079;51.092;3.458;2023-07-20T13:47:16;22.80;99.90
21834;DHT22;11079;51.092;3.458;2023-07-20T13:49:43;22.80;99.90
21834;DHT22;11079;51.092;3.458;2023-07-20T13:55:11;22.70;99.90
21834;DHT22;11079;51.092;3.458;2023-07-20T13:57:37;22.60;99.90
21834;DHT22;11079;51.092;3.458;2023-07-20T14:00:04;22.50;99.90
21834;DHT22;11079;51.092;3.458;2023-07-20T14:02:31;22.40;99.90
21834;DHT22;11079;51.092;3.458;2023-07-20T14:05:05;22.50;99.90
21834;DHT22;11079;51.092;3.458;2023-07-20T14:07:31;22.70;99.90
21834;DHT22;11079;51.092;3.458;2023-07-20T14:09:56;22.90;99.90
21834;DHT22;11079;51.092;3.458;2023-07-20T14:12:22;22.90;99.90
21834;DHT22;11079;51.092;3.458;2023-07-20T14:14:48;22.80;99.90
21834;DHT22;11079;51.092;3.458;2023-07-20T14:17:13;22.70;99.90
21834;DHT22;11079;51.092;3.458;2023-07-20T14:19:42;22.80;99.90
21834;DHT22;11079;51.092;3.458;2023-07-20T14:22:08;23.00;99.90
21834;DHT22;11079;51.092;3.458;2023-07-20T14:24:34;23.30;99.90
21834;DHT22;11079;51.092;3.458;2023-07-20T14:26:59;23.30;99.90
21834;DHT22;11079;51.092;3.458;2023-07-20T14:29:26;23.30;99.90
21834;DHT22;11079;51.092;3.458;2023-07-20T14:31:52;23.40;99.90
21834;DHT22;11079;51.092;3.458;2023-07-20T14:34:18;23.20;99.90
21834;DHT22;11079;51.092;3.458;2023-07-20T14:36:45;23.10;99.90
21834;DHT22;11079;51.092;3.458;2023-07-20T14:39:10;23.00;99.90
21834;DHT22;11079;51.092;3.458;2023-07-20T14:41:36;22.80;99.90
21834;DHT22;11079;51.092;3.458;2023-07-20T14:44:02;22.80;99.90
21834;DHT22;11079;51.092;3.458;2023-07-20T14:46:28;22.60;99.90
21834;DHT22;11079;51.092;3.458;2023-07-20T14:48:53;22.50;99.90
21834;DHT22;11079;51.092;3.458;2023-07-20T14:51:19;22.30;99.90
21834;DHT22;11079;51.092;3.458;2023-07-20T14:53:45;22.40;99.90
21834;DHT22;11079;51.092;3.458;2023-07-20T14:56:10;22.30;99.90
21834;DHT22;11079;51.092;3.458;2023-07-20T14:58:36;22.30;99.90
21834;DHT22;11079;51.092;3.458;2023-07-20T15:01:02;22.30;99.90
21834;DHT22;11079;51.092;3.458;2023-07-20T15:03:28;22.30;99.90
21834;DHT22;11079;51.092;3.458;2023-07-20T15:05:56;22.50;99.90
21834;DHT22;11079;51.092;3.458;2023-07-20T15:08:21;22.60;99.90
21834;DHT22;11079;51.092;3.458;2023-07-20T15:10:48;22.80;99.90
21834;DHT22;11079;51.092;3.458;2023-07-20T15:13:14;23.10;99.90
21834;DHT22;11079;51.092;3.458;2023-07-20T15:15:40;23.40;99.90
21834;DHT22;11079;51.092;3.458;2023-07-20T15:18:07;23.70;99.90
21834;DHT22;11079;51.092;3.458;2023-07-20T15:20:32;23.90;99.90
21834;DHT22;11079;51.092;3.458;2023-07-20T15:22:58;24.20;99.90
21834;DHT22;11079;51.092;3.458;2023-07-20T15:25:25;24.40;99.90
21834;DHT22;11079;51.092;3.458;2023-07-20T15:27:51;24.50;99.90
21834;DHT22;11079;51.092;3.458;2023-07-20T15:30:36;24.10;99.90
21834;DHT22;11079;51.092;3.458;2023-07-20T15:33:02;24.20;99.90
21834;DHT22;11079;51.092;3.458;2023-07-20T15:35:28;24.40;99.90
21834;DHT22;11079;51.092;3.458;2023-07-20T15:37:53;24.20;99.90
21834;DHT22;11079;51.092;3.458;2023-07-20T15:40:19;24.00;99.90
21834;DHT22;11079;51.092;3.458;2023-07-20T15:42:45;23.50;99.90
21834;DHT22;11079;51.092;3.458;2023-07-20T15:45:24;23.30;99.90
21834;DHT22;11079;51.092;3.458;2023-07-20T15:47:53;23.10;99.90
21834;DHT22;11079;51.092;3.458;2023-07-20T15:51:04;22.70;99.90
21834;DHT22;11079;51.092;3.458;2023-07-20T15:53:32;22.90;99.90
21834;DHT22;11079;51.092;3.458;2023-07-20T15:56:02;23.00;99.90
21834;DHT22;11079;51.092;3.458;2023-07-20T15:58:28;22.80;99.90
21834;DHT22;11079;51.092;3.458;2023-07-20T16:01:02;22.50;99.90
21834;DHT22;11079;51.092;3.458;2023-07-20T16:03:43;22.50;99.90
21834;DHT22;11079;51.092;3.458;2023-07-20T16:06:09;22.30;99.90
21834;DHT22;11079;51.092;3.458;2023-07-20T16:08:35;22.40;99.90
21834;DHT22;11079;51.092;3.458;2023-07-20T16:11:00;22.50;99.90
21834;DHT22;11079;51.092;3.458;2023-07-20T16:13:28;22.30;99.90
21834;DHT22;11079;51.092;3.458;2023-07-20T16:15:54;22.20;99.90
21834;DHT22;11079;51.092;3.458;2023-07-20T16:18:20;22.10;99.90
21834;DHT22;11079;51.092;3.458;2023-07-20T16:20:46;22.10;99.90
21834;DHT22;11079;51.092;3.458;2023-07-20T16:23:11;22.10;99.90
21834;DHT22;11079;51.092;3.458;2023-07-20T16:25:37;22.20;99.90